Time;durP1;ratioP1;P1;durP2;ratioP2;P2;SDS_P1;SDS_P2;PMS_P1;PMS_P2;Temp;Humidity;BMP_temperature;BMP_pressure;BME280_temperature;BME280_humidity;BME280_pressure;Samples;Min_cycle;Max_cycle;Signal;HPM_P1;HPM_P2
2022/01/06 00:02:13;;;;;;;3.00;2.13;;;;;;;;;;5123579;27;25005;-55
2022/01/06 00:04:39;;;;;;;2.70;2.50;;;;;;;;;;5123593;27;24526;-55
2022/01/06 00:07:04;;;;;;;2.80;2.50;;;;;;;;;;5119721;27;24413;-55
2022/01/06 00:09:29;;;;;;;3.00;2.17;;;;;;;;;;5120365;27;24476;-55
2022/01/06 00:11:54;;;;;;;2.10;2.00;;;;;;;;;;5118656;27;24830;-55
2022/01/06 00:14:38;;;;;;;2.70;2.30;;;;;;;;;;5115273;27;24417;-56
2022/01/06 00:17:38;;;;;;;2.60;2.40;;;;;;;;;;5121025;27;26062;-56
2022/01/06 00:25:31;;;;;;;3.00;2.70;;;;;;;;;;5123080;27;24409;-53
2022/01/06 00:27:56;;;;;;;4.07;3.17;;;;;;;;;;5121425;27;24421;-53
2022/01/06 00:30:21;;;;;;;3.30;2.90;;;;;;;;;;5121011;27;24402;-54
2022/01/06 00:32:46;;;;;;;3.65;2.75;;;;;;;;;;5120887;27;24425;-54
2022/01/06 00:35:12;;;;;;;2.93;2.63;;;;;;;;;;5120054;27;24774;-53
2022/01/06 00:37:37;;;;;;;4.00;2.90;;;;;;;;;;5123065;27;24435;-54
2022/01/06 00:40:02;;;;;;;3.78;3.30;;;;;;;;;;5121879;27;24845;-54
2022/01/06 00:42:27;;;;;;;3.90;2.70;;;;;;;;;;5121377;27;24520;-54
2022/01/06 00:44:53;;;;;;;3.40;3.10;;;;;;;;;;5122017;27;24416;-54
2022/01/06 00:47:20;;;;;;;4.70;3.00;;;;;;;;;;5121961;27;24470;-55
2022/01/06 00:49:46;;;;;;;3.60;3.30;;;;;;;;;;5117866;27;25076;-54
2022/01/06 00:52:11;;;;;;;3.37;3.07;;;;;;;;;;5123320;27;24457;-54
2022/01/06 00:54:36;;;;;;;3.40;3.10;;;;;;;;;;5123530;27;24784;-54
2022/01/06 00:57:01;;;;;;;4.40;3.53;;;;;;;;;;5121192;28;25223;-53
2022/01/06 00:59:26;;;;;;;3.57;2.90;;;;;;;;;;5120901;28;24420;-54
2022/01/06 01:01:51;;;;;;;3.33;3.03;;;;;;;;;;5120418;28;24482;-55
2022/01/06 01:04:16;;;;;;;2.95;2.40;;;;;;;;;;5123823;28;25235;-54
2022/01/06 01:06:41;;;;;;;2.30;2.10;;;;;;;;;;5123069;28;24419;-54
2022/01/06 01:09:07;;;;;;;2.20;2.10;;;;;;;;;;5120578;28;24441;-55
2022/01/06 01:11:32;;;;;;;1.80;1.70;;;;;;;;;;5122523;28;25043;-55
2022/01/06 01:14:07;;;;;;;2.23;2.00;;;;;;;;;;5118276;28;24409;-54
2022/01/06 01:16:32;;;;;;;1.97;1.80;;;;;;;;;;5115274;28;24413;-57
2022/01/06 01:18:58;;;;;;;2.10;1.53;;;;;;;;;;5123052;28;24466;-54
2022/01/06 01:21:27;;;;;;;2.17;1.50;;;;;;;;;;5120505;28;24473;-54
2022/01/06 01:23:56;;;;;;;1.70;1.60;;;;;;;;;;5119169;28;24444;-54
2022/01/06 01:26:21;;;;;;;1.40;1.30;;;;;;;;;;5123759;27;25350;-54
2022/01/06 01:28:47;;;;;;;1.50;1.40;;;;;;;;;;5113430;27;24413;-54
2022/01/06 01:31:25;;;;;;;1.53;1.40;;;;;;;;;;5123375;27;24409;-54
2022/01/06 01:33:52;;;;;;;1.02;1.00;;;;;;;;;;5124404;27;24462;-54
2022/01/06 01:36:17;;;;;;;1.10;0.98;;;;;;;;;;5124467;27;24589;-54
2022/01/06 01:38:43;;;;;;;1.20;1.10;;;;;;;;;;5125585;27;24421;-53
2022/01/06 01:41:09;;;;;;;0.90;0.90;;;;;;;;;;5116673;27;24421;-53
2022/01/06 01:43:34;;;;;;;1.00;1.00;;;;;;;;;;5126270;27;24462;-53
2022/01/06 01:46:08;;;;;;;1.00;0.90;;;;;;;;;;5125225;27;24767;-54
2022/01/06 01:48:36;;;;;;;1.30;1.20;;;;;;;;;;5124340;27;24985;-54
2022/01/06 01:51:02;;;;;;;1.40;1.00;;;;;;;;;;5119045;27;24474;-54
2022/01/06 01:53:27;;;;;;;1.40;1.30;;;;;;;;;;5126398;27;24417;-55
2022/01/06 01:55:52;;;;;;;1.60;1.50;;;;;;;;;;5126521;27;24939;-54
2022/01/06 01:58:18;;;;;;;2.72;1.60;;;;;;;;;;5124176;27;24465;-54
2022/01/06 02:00:43;;;;;;;2.90;2.00;;;;;;;;;;5118529;27;25068;-55
2022/01/06 02:03:08;;;;;;;3.03;2.47;;;;;;;;;;5122995;27;24436;-54
2022/01/06 02:05:33;;;;;;;5.90;2.60;;;;;;;;;;5125680;27;24455;-54
2022/01/06 02:07:59;;;;;;;6.60;3.05;;;;;;;;;;5124635;27;24432;-54
2022/01/06 02:10:25;;;;;;;3.60;2.20;;;;;;;;;;5122969;27;24413;-54
2022/01/06 02:12:53;;;;;;;4.03;2.85;;;;;;;;;;5122924;27;24428;-54
2022/01/06 02:15:18;;;;;;;6.45;2.90;;;;;;;;;;5100888;27;24436;-53
2022/01/06 02:17:44;;;;;;;3.22;2.60;;;;;;;;;;5124282;27;24417;-55
2022/01/06 02:20:11;;;;;;;3.93;2.60;;;;;;;;;;5125739;27;24977;-54
2022/01/06 02:22:36;;;;;;;6.82;2.70;;;;;;;;;;5123683;27;25181;-54
2022/01/06 02:25:08;;;;;;;3.15;2.30;;;;;;;;;;5121271;27;24443;-55
2022/01/06 02:27:34;;;;;;;4.35;1.90;;;;;;;;;;5125597;27;24459;-54
2022/01/06 02:29:59;;;;;;;4.30;2.92;;;;;;;;;;5122614;27;24509;-54
2022/01/06 02:32:24;;;;;;;7.03;2.58;;;;;;;;;;5125343;27;24413;-54
2022/01/06 02:34:49;;;;;;;2.80;2.50;;;;;;;;;;5121672;27;24835;-55
2022/01/06 02:37:14;;;;;;;2.70;2.10;;;;;;;;;;5122635;27;24517;-55
2022/01/06 02:39:40;;;;;;;4.77;2.03;;;;;;;;;;5125099;27;24420;-54
2022/01/06 02:42:06;;;;;;;4.13;2.10;;;;;;;;;;5122276;27;24464;-55
2022/01/06 02:44:32;;;;;;;5.00;2.20;;;;;;;;;;5123744;27;24416;-54
2022/01/06 02:46:57;;;;;;;2.40;1.97;;;;;;;;;;5123258;27;24572;-54
2022/01/06 02:49:22;;;;;;;4.30;1.73;;;;;;;;;;5123996;27;24467;-54
2022/01/06 02:51:47;;;;;;;3.63;2.10;;;;;;;;;;5124347;27;24508;-55
2022/01/06 02:54:13;;;;;;;3.37;2.20;;;;;;;;;;5123932;27;24413;-54
2022/01/06 02:56:39;;;;;;;2.95;1.80;;;;;;;;;;5123206;27;24413;-54
2022/01/06 02:59:04;;;;;;;4.00;1.80;;;;;;;;;;5122676;27;24537;-54
2022/01/06 03:01:29;;;;;;;4.50;2.33;;;;;;;;;;5124255;27;24994;-54
2022/01/06 03:03:55;;;;;;;4.73;1.97;;;;;;;;;;5124334;27;24520;-54
2022/01/06 03:06:20;;;;;;;4.90;2.20;;;;;;;;;;5121785;27;24456;-55
2022/01/06 03:08:45;;;;;;;4.40;2.10;;;;;;;;;;5122682;27;24425;-54
2022/01/06 03:11:10;;;;;;;3.17;2.10;;;;;;;;;;5123880;27;25347;-54
2022/01/06 03:13:35;;;;;;;4.40;2.40;;;;;;;;;;5125082;27;24860;-54
2022/01/06 03:16:01;;;;;;;5.80;2.23;;;;;;;;;;5122906;27;24417;-53
2022/01/06 03:18:26;;;;;;;5.00;2.10;;;;;;;;;;5119015;27;24569;-54
2022/01/06 03:20:52;;;;;;;3.10;2.27;;;;;;;;;;5122575;27;24453;-54
2022/01/06 03:23:17;;;;;;;3.70;2.42;;;;;;;;;;5124762;27;24501;-53
2022/01/06 03:25:42;;;;;;;2.67;2.03;;;;;;;;;;5122485;27;26171;-55
2022/01/06 03:28:07;;;;;;;6.47;2.40;;;;;;;;;;5118617;27;25204;-55
2022/01/06 03:30:32;;;;;;;3.92;2.40;;;;;;;;;;5122097;27;24413;-55
2022/01/06 03:32:57;;;;;;;3.50;2.20;;;;;;;;;;5123245;27;24422;-55
2022/01/06 03:35:23;;;;;;;3.75;2.42;;;;;;;;;;5121881;27;25044;-53
2022/01/06 03:37:49;;;;;;;5.35;2.70;;;;;;;;;;5121820;27;24448;-54
2022/01/06 03:40:14;;;;;;;7.03;2.80;;;;;;;;;;5124438;27;24450;-54
2022/01/06 03:42:40;;;;;;;4.80;2.53;;;;;;;;;;5123560;27;24413;-54
2022/01/06 03:45:06;;;;;;;5.25;2.50;;;;;;;;;;5121443;27;24413;-55
2022/01/06 03:47:31;;;;;;;5.65;3.00;;;;;;;;;;5120674;27;24429;-53
2022/01/06 03:49:57;;;;;;;4.53;2.90;;;;;;;;;;5119746;27;24417;-53
2022/01/06 03:52:22;;;;;;;3.83;2.40;;;;;;;;;;5123434;27;24397;-55
2022/01/06 03:54:47;;;;;;;3.87;2.20;;;;;;;;;;5123999;27;24416;-54
2022/01/06 03:57:12;;;;;;;3.42;2.10;;;;;;;;;;5121548;27;25238;-55
2022/01/06 03:59:37;;;;;;;3.13;2.20;;;;;;;;;;5121760;27;24985;-54
2022/01/06 04:02:03;;;;;;;2.60;2.40;;;;;;;;;;5120807;27;24503;-57
2022/01/06 04:04:28;;;;;;;3.47;2.20;;;;;;;;;;5116625;27;25011;-55
2022/01/06 04:06:53;;;;;;;4.70;2.05;;;;;;;;;;5123182;27;24989;-55
2022/01/06 04:09:18;;;;;;;2.50;2.10;;;;;;;;;;5120142;27;24528;-58
2022/01/06 04:11:43;;;;;;;2.85;1.83;;;;;;;;;;5121307;27;24546;-55
2022/01/06 04:14:08;;;;;;;3.10;2.10;;;;;;;;;;5119651;27;24413;-55
2022/01/06 04:16:36;;;;;;;3.90;2.08;;;;;;;;;;5123263;27;24413;-54
2022/01/06 04:19:02;;;;;;;2.33;1.83;;;;;;;;;;5119922;27;24405;-54
2022/01/06 04:21:27;;;;;;;5.18;2.17;;;;;;;;;;5119688;27;24504;-55
2022/01/06 04:23:52;;;;;;;4.07;2.10;;;;;;;;;;5124070;27;24517;-55
2022/01/06 04:26:17;;;;;;;2.90;1.95;;;;;;;;;;5114443;27;24444;-55
2022/01/06 04:28:43;;;;;;;2.53;2.20;;;;;;;;;;5115461;27;24551;-55
2022/01/06 04:31:08;;;;;;;2.65;2.08;;;;;;;;;;5117262;27;24413;-54
2022/01/06 04:33:34;;;;;;;2.08;1.70;;;;;;;;;;5122476;27;24428;-54
2022/01/06 04:35:59;;;;;;;2.13;1.93;;;;;;;;;;5122516;27;24429;-54
2022/01/06 04:38:25;;;;;;;2.60;2.00;;;;;;;;;;5121148;27;24420;-54
2022/01/06 04:40:50;;;;;;;2.40;2.15;;;;;;;;;;5111540;27;25217;-54
2022/01/06 04:43:16;;;;;;;3.37;2.37;;;;;;;;;;5119930;27;24508;-55
2022/01/06 04:45:41;;;;;;;3.90;3.10;;;;;;;;;;5121345;27;24527;-54
2022/01/06 04:48:06;;;;;;;3.20;2.90;;;;;;;;;;5121399;27;24558;-54
2022/01/06 04:50:32;;;;;;;2.80;2.60;;;;;;;;;;5122836;27;24417;-55
2022/01/06 04:52:57;;;;;;;3.17;2.50;;;;;;;;;;5121471;27;24412;-55
2022/01/06 04:55:22;;;;;;;3.30;2.77;;;;;;;;;;5121585;27;24562;-55
2022/01/06 04:57:47;;;;;;;2.80;2.60;;;;;;;;;;5121342;27;24413;-55
2022/01/06 05:00:12;;;;;;;3.70;2.70;;;;;;;;;;5122700;28;24417;-55
2022/01/06 05:02:38;;;;;;;3.00;2.70;;;;;;;;;;5122253;27;24475;-55
2022/01/06 05:05:03;;;;;;;4.90;2.75;;;;;;;;;;5118323;28;24506;-55
2022/01/06 05:07:28;;;;;;;3.80;2.90;;;;;;;;;;5117771;28;24416;-55
2022/01/06 05:09:53;;;;;;;3.60;2.40;;;;;;;;;;5118410;28;24435;-56
2022/01/06 05:12:18;;;;;;;4.07;2.67;;;;;;;;;;5120905;28;24799;-55
2022/01/06 05:14:44;;;;;;;4.17;2.80;;;;;;;;;;5117031;28;24440;-55
2022/01/06 05:17:09;;;;;;;3.47;2.67;;;;;;;;;;5117478;28;24401;-56
2022/01/06 05:19:34;;;;;;;3.50;2.50;;;;;;;;;;5120446;28;24421;-56
2022/01/06 05:22:00;;;;;;;2.95;2.60;;;;;;;;;;5117272;28;24417;-56
2022/01/06 05:24:25;;;;;;;4.20;2.83;;;;;;;;;;5119414;28;24578;-55
2022/01/06 05:26:51;;;;;;;3.47;2.90;;;;;;;;;;5119554;28;25216;-55
2022/01/06 05:29:16;;;;;;;3.65;3.30;;;;;;;;;;5117659;27;24429;-55
2022/01/06 05:31:41;;;;;;;2.70;2.50;;;;;;;;;;5117630;28;24413;-55
2022/01/06 05:34:07;;;;;;;3.40;2.50;;;;;;;;;;5117654;28;24776;-55
2022/01/06 05:36:33;;;;;;;3.73;2.80;;;;;;;;;;5117869;27;24444;-56
2022/01/06 05:38:58;;;;;;;4.53;2.90;;;;;;;;;;5117649;28;25158;-56
2022/01/06 05:41:23;;;;;;;2.60;2.40;;;;;;;;;;5119114;28;24569;-56
2022/01/06 05:43:49;;;;;;;6.10;2.70;;;;;;;;;;5115657;28;24566;-56
2022/01/06 05:46:15;;;;;;;3.20;2.40;;;;;;;;;;5117211;28;24967;-55
2022/01/06 05:48:40;;;;;;;3.10;1.90;;;;;;;;;;5120344;28;24886;-55
2022/01/06 05:51:05;;;;;;;4.07;2.35;;;;;;;;;;5117274;28;24994;-55
2022/01/06 05:53:31;;;;;;;3.93;2.40;;;;;;;;;;5118210;28;24432;-55
2022/01/06 05:55:56;;;;;;;3.40;2.72;;;;;;;;;;5116803;27;24835;-55
2022/01/06 05:58:21;;;;;;;4.80;2.63;;;;;;;;;;5099474;28;24784;-55
2022/01/06 06:00:48;;;;;;;4.40;2.30;;;;;;;;;;5112847;28;24428;-56
2022/01/06 06:03:13;;;;;;;4.70;2.42;;;;;;;;;;5111160;28;24463;-56
2022/01/06 06:05:41;;;;;;;3.33;2.10;;;;;;;;;;5108582;28;24456;-55
2022/01/06 06:08:06;;;;;;;3.65;2.58;;;;;;;;;;5114841;28;24441;-56
2022/01/06 06:10:31;;;;;;;5.03;2.80;;;;;;;;;;5119836;28;24432;-56
2022/01/06 06:12:56;;;;;;;4.10;2.50;;;;;;;;;;5113616;27;24846;-56
2022/01/06 06:15:22;;;;;;;2.70;2.50;;;;;;;;;;5112285;27;24688;-55
2022/01/06 06:17:47;;;;;;;3.40;2.70;;;;;;;;;;5117480;27;24790;-55
2022/01/06 06:20:12;;;;;;;3.03;2.60;;;;;;;;;;5117592;27;24488;-56
2022/01/06 06:22:38;;;;;;;3.83;2.60;;;;;;;;;;5117423;27;24412;-55
2022/01/06 06:25:03;;;;;;;4.50;2.80;;;;;;;;;;5119212;27;25032;-55
2022/01/06 06:27:28;;;;;;;4.87;2.37;;;;;;;;;;5117577;27;24413;-55
2022/01/06 06:29:53;;;;;;;4.03;2.50;;;;;;;;;;5122245;27;25180;-55
2022/01/06 06:32:18;;;;;;;2.40;2.20;;;;;;;;;;5124339;27;24413;-55
2022/01/06 06:34:44;;;;;;;3.30;2.20;;;;;;;;;;5125785;27;24401;-55
2022/01/06 06:37:09;;;;;;;2.67;2.40;;;;;;;;;;5124009;27;25043;-55
2022/01/06 06:39:34;;;;;;;5.07;2.10;;;;;;;;;;5122418;27;24967;-55
2022/01/06 06:41:59;;;;;;;3.60;2.30;;;;;;;;;;5125787;27;24388;-55
2022/01/06 06:44:24;;;;;;;2.40;1.80;;;;;;;;;;5125452;27;24413;-54
2022/01/06 06:46:51;;;;;;;3.28;1.80;;;;;;;;;;5121434;27;24526;-54
2022/01/06 06:49:16;;;;;;;2.22;2.03;;;;;;;;;;5123636;27;24569;-54
2022/01/06 06:51:41;;;;;;;3.10;2.00;;;;;;;;;;5125905;27;24480;-55
2022/01/06 06:54:07;;;;;;;3.50;2.00;;;;;;;;;;5123623;27;24980;-55
2022/01/06 06:56:32;;;;;;;3.13;2.20;;;;;;;;;;5123987;27;24382;-55
2022/01/06 06:58:57;;;;;;;3.90;1.90;;;;;;;;;;5123310;27;25049;-55
2022/01/06 07:01:22;;;;;;;3.70;2.37;;;;;;;;;;5123585;27;24389;-55
2022/01/06 07:03:47;;;;;;;2.60;1.80;;;;;;;;;;5125463;27;24403;-55
2022/01/06 07:06:12;;;;;;;4.20;2.70;;;;;;;;;;5123427;27;24943;-55
2022/01/06 07:08:37;;;;;;;3.38;1.63;;;;;;;;;;5121298;27;24413;-55
2022/01/06 07:11:03;;;;;;;3.07;1.70;;;;;;;;;;5122999;27;24429;-55
2022/01/06 07:13:28;;;;;;;1.60;1.50;;;;;;;;;;5125530;27;24412;-54
2022/01/06 07:15:53;;;;;;;4.30;2.10;;;;;;;;;;5123112;27;24409;-54
2022/01/06 07:18:18;;;;;;;2.73;1.60;;;;;;;;;;5124914;27;24407;-54
2022/01/06 07:20:43;;;;;;;1.87;1.47;;;;;;;;;;5121743;27;24393;-54
2022/01/06 07:23:09;;;;;;;2.20;1.30;;;;;;;;;;5122743;27;24417;-54
2022/01/06 07:25:34;;;;;;;3.00;1.80;;;;;;;;;;5124404;27;24506;-54
2022/01/06 07:27:59;;;;;;;2.03;1.40;;;;;;;;;;5121853;27;24524;-55
2022/01/06 07:30:24;;;;;;;2.77;1.73;;;;;;;;;;5122262;27;24767;-54
2022/01/06 07:32:50;;;;;;;4.60;1.60;;;;;;;;;;5121609;27;24473;-54
2022/01/06 07:35:16;;;;;;;2.23;1.50;;;;;;;;;;5121241;27;24508;-55
2022/01/06 07:37:41;;;;;;;1.80;1.30;;;;;;;;;;5120333;27;24475;-54
2022/01/06 07:40:08;;;;;;;3.15;1.63;;;;;;;;;;5105058;27;24966;-55
2022/01/06 07:42:33;;;;;;;2.58;1.50;;;;;;;;;;5116406;27;24409;-55
2022/01/06 07:45:02;;;;;;;2.10;1.30;;;;;;;;;;5115667;27;24746;-54
2022/01/06 07:47:32;;;;;;;4.70;1.70;;;;;;;;;;5113558;27;24783;-55
2022/01/06 07:49:58;;;;;;;1.48;1.35;;;;;;;;;;5109156;27;24894;-54
2022/01/06 07:52:23;;;;;;;2.28;1.45;;;;;;;;;;5110883;27;24436;-53
2022/01/06 07:54:49;;;;;;;3.03;1.73;;;;;;;;;;5115425;27;24425;-53
2022/01/06 07:57:14;;;;;;;2.45;1.60;;;;;;;;;;5114840;27;24540;-53
2022/01/06 07:59:40;;;;;;;6.10;1.88;;;;;;;;;;5114635;27;24784;-54
2022/01/06 08:02:05;;;;;;;2.38;1.30;;;;;;;;;;5115372;27;24429;-54
2022/01/06 08:04:30;;;;;;;5.37;1.30;;;;;;;;;;5119174;27;24824;-54
2022/01/06 08:06:55;;;;;;;2.30;1.45;;;;;;;;;;5116768;27;24543;-54
2022/01/06 08:09:20;;;;;;;3.93;1.43;;;;;;;;;;5106520;27;24428;-54
2022/01/06 08:11:45;;;;;;;2.58;1.60;;;;;;;;;;5116147;27;24461;-55
2022/01/06 08:14:10;;;;;;;3.08;1.58;;;;;;;;;;5114556;27;24903;-55
2022/01/06 08:16:36;;;;;;;3.13;1.30;;;;;;;;;;5118952;27;24397;-55
2022/01/06 08:19:01;;;;;;;2.47;1.90;;;;;;;;;;5117425;27;24498;-54
2022/01/06 08:21:26;;;;;;;2.22;1.60;;;;;;;;;;5118610;27;24419;-55
2022/01/06 08:23:51;;;;;;;4.40;2.03;;;;;;;;;;5108721;27;24429;-57
2022/01/06 08:26:16;;;;;;;1.70;1.60;;;;;;;;;;5104791;27;24414;-56
2022/01/06 08:28:42;;;;;;;3.23;1.90;;;;;;;;;;5114376;27;24453;-57
2022/01/06 08:31:07;;;;;;;2.80;1.70;;;;;;;;;;5097516;27;24421;-56
2022/01/06 08:33:32;;;;;;;2.03;1.67;;;;;;;;;;5120004;27;24512;-55
2022/01/06 08:35:58;;;;;;;4.38;1.70;;;;;;;;;;5109858;27;24436;-56
2022/01/06 08:38:23;;;;;;;2.07;1.57;;;;;;;;;;5115366;27;24478;-56
2022/01/06 08:40:48;;;;;;;3.10;1.70;;;;;;;;;;5114774;27;24421;-57
2022/01/06 08:43:13;;;;;;;2.28;1.50;;;;;;;;;;5112914;27;24421;-57
2022/01/06 08:45:39;;;;;;;3.53;1.70;;;;;;;;;;5119772;27;24424;-56
2022/01/06 08:48:04;;;;;;;3.50;1.80;;;;;;;;;;5116938;27;24458;-56
2022/01/06 08:50:29;;;;;;;4.63;2.00;;;;;;;;;;5117999;27;24462;-56
2022/01/06 08:52:55;;;;;;;4.00;1.90;;;;;;;;;;5113116;27;24858;-56
2022/01/06 08:55:20;;;;;;;3.42;1.83;;;;;;;;;;5119722;27;24406;-57
2022/01/06 08:57:45;;;;;;;3.07;1.47;;;;;;;;;;5120331;27;24480;-56
2022/01/06 09:00:11;;;;;;;2.33;1.92;;;;;;;;;;5119518;27;24388;-57
2022/01/06 09:02:36;;;;;;;3.40;1.50;;;;;;;;;;5115750;28;24444;-57
2022/01/06 09:05:05;;;;;;;2.53;1.53;;;;;;;;;;5113165;28;24456;-57
2022/01/06 09:07:30;;;;;;;3.55;1.80;;;;;;;;;;5118510;28;24501;-58
2022/01/06 09:09:56;;;;;;;2.90;1.70;;;;;;;;;;5118467;28;24520;-57
2022/01/06 09:12:21;;;;;;;3.10;2.00;;;;;;;;;;5120001;28;24390;-57
2022/01/06 09:14:46;;;;;;;2.40;1.73;;;;;;;;;;5101563;28;24504;-57
2022/01/06 09:17:12;;;;;;;4.07;2.28;;;;;;;;;;5118275;28;24565;-57
2022/01/06 09:19:40;;;;;;;4.30;2.28;;;;;;;;;;5118108;28;24887;-57
2022/01/06 09:22:05;;;;;;;3.17;2.08;;;;;;;;;;5097321;28;25250;-56
2022/01/06 09:24:30;;;;;;;2.80;1.98;;;;;;;;;;5119112;28;24447;-57
2022/01/06 09:26:55;;;;;;;3.50;1.90;;;;;;;;;;5113140;28;24456;-57
2022/01/06 09:29:20;;;;;;;2.22;1.95;;;;;;;;;;5115212;28;24454;-57
2022/01/06 09:31:46;;;;;;;3.80;2.00;;;;;;;;;;5106385;28;24895;-58
2022/01/06 09:34:11;;;;;;;3.90;2.00;;;;;;;;;;5116943;28;24989;-58
2022/01/06 09:36:38;;;;;;;2.70;2.00;;;;;;;;;;5109014;28;25278;-57
2022/01/06 09:39:04;;;;;;;3.00;1.90;;;;;;;;;;5108092;28;24528;-57
2022/01/06 09:41:30;;;;;;;2.47;2.00;;;;;;;;;;5114165;28;24420;-56
2022/01/06 09:43:56;;;;;;;3.47;2.00;;;;;;;;;;5118038;28;24430;-57
2022/01/06 09:46:21;;;;;;;1.88;1.75;;;;;;;;;;5118551;28;24532;-57
2022/01/06 09:48:47;;;;;;;3.10;1.80;;;;;;;;;;5110649;27;24440;-56
2022/01/06 09:51:12;;;;;;;2.80;2.10;;;;;;;;;;5112072;27;24482;-57
2022/01/06 09:53:38;;;;;;;3.03;2.00;;;;;;;;;;5112374;27;24414;-57
2022/01/06 09:56:03;;;;;;;3.30;2.20;;;;;;;;;;5095130;27;24487;-57
2022/01/06 09:58:28;;;;;;;3.90;2.37;;;;;;;;;;5118065;27;24421;-56
2022/01/06 10:00:55;;;;;;;2.80;1.93;;;;;;;;;;5116427;27;24464;-58
2022/01/06 10:03:21;;;;;;;4.40;2.30;;;;;;;;;;5115391;27;24516;-57
2022/01/06 10:05:49;;;;;;;3.57;2.40;;;;;;;;;;5113175;27;24520;-57
2022/01/06 10:08:25;;;;;;;2.83;2.10;;;;;;;;;;5122108;27;24424;-57
2022/01/06 10:10:50;;;;;;;3.47;2.30;;;;;;;;;;5112489;27;24483;-56
2022/01/06 10:13:16;;;;;;;2.95;2.20;;;;;;;;;;5117557;27;24491;-57
2022/01/06 10:15:41;;;;;;;3.78;2.25;;;;;;;;;;5126851;27;24411;-57
2022/01/06 10:18:16;;;;;;;3.33;2.40;;;;;;;;;;5121758;27;25117;-57
2022/01/06 10:20:42;;;;;;;3.53;2.60;;;;;;;;;;5125521;27;24409;-58
2022/01/06 10:23:12;;;;;;;3.63;2.03;;;;;;;;;;5119096;27;24851;-56
2022/01/06 10:25:38;;;;;;;4.00;2.58;;;;;;;;;;5121344;27;24420;-56
2022/01/06 10:28:14;;;;;;;4.87;2.43;;;;;;;;;;5117046;27;24647;-57
2022/01/06 10:30:47;;;;;;;3.20;2.30;;;;;;;;;;5121562;27;24413;-57
2022/01/06 10:33:12;;;;;;;3.80;2.20;;;;;;;;;;5124068;27;24472;-57
2022/01/06 10:35:37;;;;;;;2.92;2.10;;;;;;;;;;5119699;27;25204;-57
2022/01/06 10:38:02;;;;;;;5.10;2.50;;;;;;;;;;5106894;27;24457;-57
2022/01/06 10:40:28;;;;;;;2.53;2.30;;;;;;;;;;5113212;27;24397;-57
2022/01/06 10:42:54;;;;;;;2.80;2.25;;;;;;;;;;5109439;27;24431;-56
2022/01/06 10:45:24;;;;;;;3.80;2.40;;;;;;;;;;5109205;27;24417;-57
2022/01/06 10:48:01;;;;;;;2.90;2.20;;;;;;;;;;5113150;27;24440;-57
2022/01/06 10:50:36;;;;;;;3.78;2.17;;;;;;;;;;5105425;27;24412;-55
2022/01/06 10:53:01;;;;;;;3.70;2.45;;;;;;;;;;5111613;27;24970;-56
2022/01/06 10:55:33;;;;;;;8.13;2.60;;;;;;;;;;5122274;27;24465;-56
2022/01/06 10:58:06;;;;;;;6.18;2.65;;;;;;;;;;5114469;27;24845;-57
2022/01/06 11:00:35;;;;;;;4.10;2.30;;;;;;;;;;5118280;27;24509;-56
2022/01/06 11:03:17;;;;;;;3.35;2.30;;;;;;;;;;5116276;27;24494;-57
2022/01/06 11:05:45;;;;;;;3.20;1.97;;;;;;;;;;5117822;27;25023;-56
2022/01/06 11:08:12;;;;;;;4.18;2.63;;;;;;;;;;5123644;27;24425;-56
2022/01/06 11:10:45;;;;;;;4.38;2.58;;;;;;;;;;5114204;27;24429;-56
2022/01/06 11:13:10;;;;;;;2.45;2.20;;;;;;;;;;5114133;27;24523;-56
2022/01/06 11:15:36;;;;;;;3.47;2.58;;;;;;;;;;5112587;27;25036;-57
2022/01/06 11:18:01;;;;;;;4.10;2.20;;;;;;;;;;5117090;27;24420;-57
2022/01/06 11:20:27;;;;;;;3.50;2.47;;;;;;;;;;5107466;27;24406;-57
2022/01/06 11:22:53;;;;;;;3.78;2.50;;;;;;;;;;5116065;27;24803;-57
2022/01/06 11:25:29;;;;;;;5.55;3.00;;;;;;;;;;5114532;27;24425;-57
2022/01/06 11:28:00;;;;;;;3.20;2.90;;;;;;;;;;5117954;27;24493;-57
2022/01/06 11:30:26;;;;;;;3.55;2.85;;;;;;;;;;5108242;27;24819;-56
2022/01/06 11:32:57;;;;;;;3.25;2.90;;;;;;;;;;5115882;27;24540;-57
2022/01/06 11:35:22;;;;;;;4.18;3.30;;;;;;;;;;5116635;27;24610;-56
2022/01/06 11:37:48;;;;;;;4.00;3.00;;;;;;;;;;5118414;27;25317;-56
2022/01/06 11:40:15;;;;;;;3.80;3.30;;;;;;;;;;5120934;27;24858;-55
2022/01/06 11:42:41;;;;;;;3.30;2.75;;;;;;;;;;5122642;27;24424;-56
2022/01/06 11:45:06;;;;;;;3.80;2.70;;;;;;;;;;5114056;27;25084;-56
2022/01/06 11:47:36;;;;;;;4.13;2.90;;;;;;;;;;5107476;27;24410;-57
2022/01/06 11:50:16;;;;;;;3.50;2.70;;;;;;;;;;5100004;28;25058;-56
2022/01/06 11:52:57;;;;;;;3.42;2.55;;;;;;;;;;5114692;27;24421;-57
2022/01/06 11:55:23;;;;;;;5.03;2.55;;;;;;;;;;5118910;27;24401;-57
2022/01/06 11:57:49;;;;;;;4.47;2.38;;;;;;;;;;5118206;27;24452;-57
2022/01/06 12:00:16;;;;;;;3.20;2.70;;;;;;;;;;5122785;27;24554;-56
2022/01/06 12:02:43;;;;;;;2.75;2.38;;;;;;;;;;5119984;27;24417;-56
2022/01/06 12:05:08;;;;;;;2.80;2.40;;;;;;;;;;5118809;27;24950;-56
2022/01/06 12:07:33;;;;;;;2.70;2.35;;;;;;;;;;5122114;27;24444;-56
2022/01/06 12:10:06;;;;;;;3.70;2.60;;;;;;;;;;5122746;27;24424;-56
2022/01/06 12:12:36;;;;;;;3.88;2.25;;;;;;;;;;5120898;27;24400;-56
2022/01/06 12:15:08;;;;;;;3.80;2.33;;;;;;;;;;5119614;27;24518;-56
2022/01/06 12:17:33;;;;;;;3.17;2.23;;;;;;;;;;5123867;27;24510;-56
2022/01/06 12:19:58;;;;;;;3.63;2.10;;;;;;;;;;5121673;27;24409;-56
2022/01/06 12:22:25;;;;;;;3.17;1.90;;;;;;;;;;5123743;27;24397;-57
2022/01/06 12:24:58;;;;;;;4.07;2.33;;;;;;;;;;5121303;27;24401;-57
2022/01/06 12:27:23;;;;;;;2.75;2.20;;;;;;;;;;5119807;27;24805;-57
2022/01/06 12:29:48;;;;;;;2.63;2.10;;;;;;;;;;5116763;27;24934;-52
2022/01/06 12:32:13;;;;;;;3.67;2.10;;;;;;;;;;5122114;27;24462;-52
2022/01/06 12:34:39;;;;;;;3.27;2.20;;;;;;;;;;5121073;27;24477;-52
2022/01/06 12:37:04;;;;;;;3.40;2.10;;;;;;;;;;5110408;27;25070;-52
2022/01/06 12:39:29;;;;;;;2.27;1.73;;;;;;;;;;5102365;27;24463;-53
2022/01/06 12:42:01;;;;;;;3.00;2.00;;;;;;;;;;5107908;27;24437;-53
2022/01/06 12:44:28;;;;;;;3.05;2.00;;;;;;;;;;5110834;27;24436;-57
2022/01/06 12:46:54;;;;;;;2.72;1.80;;;;;;;;;;5103782;27;24956;-57
2022/01/06 12:49:22;;;;;;;4.38;1.90;;;;;;;;;;5112385;27;25094;-57
2022/01/06 12:51:48;;;;;;;4.63;2.37;;;;;;;;;;5111349;27;24413;-57
2022/01/06 12:54:16;;;;;;;3.20;2.40;;;;;;;;;;5111526;27;24458;-56
2022/01/06 12:56:42;;;;;;;3.15;2.03;;;;;;;;;;5114992;27;25296;-56
2022/01/06 12:59:09;;;;;;;2.30;1.80;;;;;;;;;;5111363;27;24429;-56
2022/01/06 13:01:34;;;;;;;3.70;2.20;;;;;;;;;;5109252;27;24486;-57
2022/01/06 13:04:00;;;;;;;5.60;2.70;;;;;;;;;;5111633;28;24764;-57
2022/01/06 13:06:28;;;;;;;4.88;2.30;;;;;;;;;;5112474;27;24452;-57
2022/01/06 13:08:57;;;;;;;3.30;2.70;;;;;;;;;;5117542;27;24803;-57
2022/01/06 13:11:29;;;;;;;3.75;2.30;;;;;;;;;;5118933;28;24751;-56
2022/01/06 13:13:55;;;;;;;3.33;2.10;;;;;;;;;;5116538;27;24489;-56
2022/01/06 13:16:24;;;;;;;3.85;2.30;;;;;;;;;;5117665;28;24416;-56
2022/01/06 13:18:59;;;;;;;4.43;2.00;;;;;;;;;;5114429;28;24417;-55
2022/01/06 13:21:35;;;;;;;4.63;2.30;;;;;;;;;;5098724;28;24424;-55
2022/01/06 13:24:29;;;;;;;3.70;2.70;;;;;;;;;;5109773;27;24481;-56
2022/01/06 13:26:58;;;;;;;3.22;2.30;;;;;;;;;;5096044;27;24516;-56
2022/01/06 13:29:24;;;;;;;4.38;2.47;;;;;;;;;;5110155;27;24421;-57
2022/01/06 13:31:58;;;;;;;5.38;2.58;;;;;;;;;;5124350;27;24413;-58
2022/01/06 13:34:23;;;;;;;3.95;2.50;;;;;;;;;;5119568;27;24402;-57
2022/01/06 13:36:49;;;;;;;3.27;2.60;;;;;;;;;;5114429;27;24440;-57
2022/01/06 13:39:14;;;;;;;5.00;2.70;;;;;;;;;;5105734;27;24443;-57
2022/01/06 13:41:40;;;;;;;5.03;2.60;;;;;;;;;;5111651;27;24429;-56
2022/01/06 13:44:08;;;;;;;3.92;2.50;;;;;;;;;;5113077;27;24432;-56
2022/01/06 13:46:50;;;;;;;3.60;2.45;;;;;;;;;;5116074;27;24502;-57
2022/01/06 13:51:59;;;;;;;3.97;2.63;;;;;;;;;;5126287;27;24469;-57
2022/01/06 13:54:28;;;;;;;2.60;2.30;;;;;;;;;;5124455;27;24413;-57
2022/01/06 13:56:53;;;;;;;2.33;1.95;;;;;;;;;;5125823;27;24968;-56
2022/01/06 13:59:18;;;;;;;2.67;2.33;;;;;;;;;;5123961;27;24509;-57
2022/01/06 14:01:44;;;;;;;3.80;2.60;;;;;;;;;;5126108;27;24436;-57
2022/01/06 14:04:19;;;;;;;4.10;2.30;;;;;;;;;;5123828;27;24427;-56
2022/01/06 14:06:44;;;;;;;3.78;2.00;;;;;;;;;;5124293;27;24448;-57
2022/01/06 14:09:10;;;;;;;2.93;2.30;;;;;;;;;;5124342;27;24436;-57
2022/01/06 14:11:35;;;;;;;3.57;2.80;;;;;;;;;;5125851;27;24983;-57
2022/01/06 14:14:00;;;;;;;2.97;2.17;;;;;;;;;;5120931;27;24503;-58
2022/01/06 14:16:26;;;;;;;2.50;2.10;;;;;;;;;;5111828;27;24524;-57
2022/01/06 14:18:51;;;;;;;2.60;2.40;;;;;;;;;;5122625;27;24421;-57
2022/01/06 14:21:16;;;;;;;4.00;2.20;;;;;;;;;;5123574;27;24421;-56
2022/01/06 14:23:41;;;;;;;3.80;2.27;;;;;;;;;;5121174;27;24440;-58
2022/01/06 14:26:07;;;;;;;2.53;2.33;;;;;;;;;;5113522;27;24474;-57
2022/01/06 14:28:32;;;;;;;3.00;2.70;;;;;;;;;;5122987;27;24447;-58
2022/01/06 14:31:03;;;;;;;3.40;2.67;;;;;;;;;;5122789;27;24415;-57
2022/01/06 14:33:29;;;;;;;3.72;2.50;;;;;;;;;;5123909;27;24973;-57
2022/01/06 14:35:54;;;;;;;4.43;2.67;;;;;;;;;;5122464;27;24432;-57
2022/01/06 14:38:20;;;;;;;4.00;2.50;;;;;;;;;;5124481;27;24845;-57
2022/01/06 14:40:45;;;;;;;4.55;2.45;;;;;;;;;;5121917;27;24448;-57
2022/01/06 14:43:10;;;;;;;2.67;2.10;;;;;;;;;;5123854;27;24425;-57
2022/01/06 14:45:36;;;;;;;3.27;2.90;;;;;;;;;;5124737;27;24417;-55
2022/01/06 14:48:01;;;;;;;4.43;2.70;;;;;;;;;;5123096;27;24497;-58